createdAt,value
2023-03-05T00:01:45.268Z,-0.68
2023-03-05T00:04:16.496Z,-0.69
2023-03-05T00:06:45.097Z,-0.70
2023-03-05T00:09:16.853Z,-0.71
2023-03-05T00:11:46.624Z,-0.67
2023-03-05T00:14:15.642Z,-0.75
2023-03-05T00:16:44.367Z,-0.74
2023-03-05T00:19:12.997Z,-0.74
2023-03-05T00:21:43.234Z,-0.68
2023-03-05T00:24:18.269Z,-0.66
2023-03-05T00:26:48.657Z,-0.66
2023-03-05T00:29:24.168Z,-0.63
2023-03-05T00:31:52.506Z,-0.60
2023-03-05T00:34:22.082Z,-0.62
2023-03-05T00:36:53.821Z,-0.61
2023-03-05T00:39:23.506Z,-0.58
2023-03-05T00:41:53.619Z,-0.51
2023-03-05T00:44:22.458Z,-0.56
2023-03-05T00:46:52.044Z,-0.59
2023-03-05T00:49:20.624Z,-0.64
2023-03-05T00:51:49.299Z,-0.66
2023-03-05T00:54:17.816Z,-0.66
2023-03-05T00:56:49.913Z,-0.70
2023-03-05T00:59:19.638Z,-0.66
2023-03-05T01:01:48.660Z,-0.63
2023-03-05T01:04:17.012Z,-0.64
2023-03-05T01:06:46.739Z,-0.66
2023-03-05T01:09:16.039Z,-0.64
2023-03-05T01:11:44.417Z,-0.65
2023-03-05T01:14:12.845Z,-0.64
2023-03-05T01:16:42.507Z,-0.56
2023-03-05T01:19:12.695Z,-0.63
2023-03-05T01:21:41.413Z,-0.67
2023-03-05T01:24:10.513Z,-0.65
2023-03-05T01:26:39.287Z,-0.58
2023-03-05T01:29:07.751Z,-0.57
2023-03-05T01:31:36.167Z,-0.54
2023-03-05T01:34:05.930Z,-0.55
2023-03-05T01:36:34.706Z,-0.47
2023-03-05T01:39:07.413Z,-0.45
2023-03-05T01:41:36.158Z,-0.54
2023-03-05T01:44:05.646Z,-0.63
2023-03-05T01:46:36.526Z,-0.65
2023-03-05T01:49:21.075Z,-0.65
2023-03-05T01:52:00.217Z,-0.65
2023-03-05T01:54:33.982Z,-0.60
2023-03-05T01:57:11.332Z,-0.58
2023-03-05T01:59:43.202Z,-0.67
2023-03-05T02:02:11.851Z,-0.69
2023-03-05T02:04:47.498Z,-0.64
2023-03-05T02:07:17.072Z,-0.66
2023-03-05T02:09:45.494Z,-0.65
2023-03-05T02:12:16.071Z,-0.62
2023-03-05T02:14:49.564Z,-0.65
2023-03-05T02:17:21.881Z,-0.67
2023-03-05T02:19:56.144Z,-0.70
2023-03-05T02:22:26.324Z,-0.68
2023-03-05T02:24:54.944Z,-0.62
2023-03-05T02:27:34.979Z,-0.67
2023-03-05T02:30:04.778Z,-0.66
2023-03-05T02:32:33.197Z,-0.69
2023-03-05T02:35:01.774Z,-0.65
2023-03-05T02:37:35.346Z,-0.66
2023-03-05T02:40:04.077Z,-0.65
2023-03-05T02:42:33.700Z,-0.68
2023-03-05T02:45:03.407Z,-0.65
2023-03-05T02:47:32.392Z,-0.77
2023-03-05T02:50:00.882Z,-0.73
2023-03-05T02:52:32.759Z,-0.71
2023-03-05T02:55:01.697Z,-0.66
2023-03-05T02:57:31.947Z,-0.63
2023-03-05T03:00:00.524Z,-0.62
2023-03-05T03:02:28.905Z,-0.62
2023-03-05T03:04:57.385Z,-0.57
2023-03-05T03:07:25.798Z,-0.56
2023-03-05T03:09:59.154Z,-0.61
2023-03-05T03:12:27.523Z,-0.65
2023-03-05T03:14:56.194Z,-0.69
2023-03-05T03:17:24.570Z,-0.70
2023-03-05T03:19:53.130Z,-0.67
2023-03-05T03:22:21.793Z,-0.63
2023-03-05T03:24:50.519Z,-0.65
2023-03-05T03:27:20.209Z,-0.67
2023-03-05T03:29:48.575Z,-0.67
2023-03-05T03:32:16.971Z,-0.65
2023-03-05T03:34:45.910Z,-0.65
2023-03-05T03:37:14.312Z,-0.64
2023-03-05T03:39:42.657Z,-0.64
2023-03-05T03:42:11.284Z,-0.58
2023-03-05T03:44:40.990Z,-0.62
2023-03-05T03:47:09.665Z,-0.66
2023-03-05T03:49:38.252Z,-0.67
2023-03-05T03:52:07.726Z,-0.63
2023-03-05T03:54:36.358Z,-0.69
2023-03-05T03:57:04.775Z,-0.69
2023-03-05T03:59:33.082Z,-0.70
2023-03-05T04:02:02.819Z,-0.72
2023-03-05T04:04:31.361Z,-0.70
2023-03-05T04:06:59.693Z,-0.68
2023-03-05T04:09:28.104Z,-0.69
2023-03-05T04:11:56.392Z,-0.67
2023-03-05T04:14:26.716Z,-0.71
2023-03-05T04:16:58.288Z,-0.73
2023-03-05T04:19:34.055Z,-0.74
2023-03-05T04:22:02.366Z,-0.77
2023-03-05T04:24:31.022Z,-0.77
2023-03-05T04:27:00.418Z,-0.75
2023-03-05T04:29:28.797Z,-0.70
2023-03-05T04:31:57.229Z,-0.70
2023-03-05T04:34:27.043Z,-0.74
2023-03-05T04:36:55.761Z,-0.74
2023-03-05T04:39:24.046Z,-0.74
2023-03-05T04:41:52.406Z,-0.76
2023-03-05T04:44:23.278Z,-0.72
2023-03-05T04:46:51.994Z,-0.74
2023-03-05T04:49:20.366Z,-0.78
2023-03-05T04:51:50.017Z,-0.77
2023-03-05T04:54:18.698Z,-0.76
2023-03-05T04:56:47.071Z,-0.77
2023-03-05T04:59:15.820Z,-0.81
2023-03-05T05:01:44.132Z,-0.81
2023-03-05T05:04:12.467Z,-0.82
2023-03-05T05:06:41.176Z,-0.84
2023-03-05T05:09:10.907Z,-0.81
2023-03-05T05:11:39.283Z,-0.78
2023-03-05T05:14:08.333Z,-0.76
2023-03-05T05:16:37.080Z,-0.78
2023-03-05T05:19:05.497Z,-0.78
2023-03-05T05:21:33.867Z,-0.80
2023-03-05T05:24:02.178Z,-0.81
2023-03-05T05:26:35.837Z,-0.83
2023-03-05T05:29:04.234Z,-0.84
2023-03-05T05:31:32.816Z,-0.80
2023-03-05T05:34:01.242Z,-0.79
2023-03-05T05:36:29.855Z,-0.75
2023-03-05T05:39:01.368Z,-0.79
2023-03-05T05:41:31.498Z,-0.84
2023-03-05T05:43:59.758Z,-0.82
2023-03-05T05:46:29.067Z,-0.83
2023-03-05T05:48:57.438Z,-0.84
2023-03-05T05:51:26.373Z,-0.81
2023-03-05T05:53:55.062Z,-0.77
2023-03-05T05:56:23.432Z,-0.80
2023-03-05T05:58:53.317Z,-0.82
2023-03-05T06:01:25.216Z,-0.77
2023-03-05T06:03:53.908Z,-0.70
2023-03-05T06:06:24.814Z,-0.66
2023-03-05T06:08:54.828Z,-0.63
2023-03-05T06:11:24.220Z,-0.62
2023-03-05T06:13:54.341Z,-0.60
2023-03-05T06:16:25.964Z,-0.52
2023-03-05T06:18:54.787Z,-0.52
2023-03-05T06:21:24.802Z,-0.58
2023-03-05T06:23:53.294Z,-0.54
2023-03-05T06:26:24.054Z,-0.48
2023-03-05T06:28:54.942Z,-0.46
2023-03-05T06:31:26.617Z,-0.52
2023-03-05T06:33:58.165Z,-0.53
2023-03-05T06:36:27.170Z,-0.56
2023-03-05T06:38:55.994Z,-0.60
2023-03-05T06:41:27.334Z,-0.53
2023-03-05T06:43:58.085Z,-0.54
2023-03-05T06:46:29.566Z,-0.50
2023-03-05T06:49:00.695Z,-0.53
2023-03-05T06:51:32.170Z,-0.58
2023-03-05T06:54:04.004Z,-0.54
2023-03-05T06:56:33.121Z,-0.48
2023-03-05T06:59:02.795Z,-0.46
2023-03-05T07:01:31.175Z,-0.46
2023-03-05T07:04:00.503Z,-0.38
2023-03-05T07:06:29.940Z,-0.34
2023-03-05T07:09:01.289Z,-0.34
2023-03-05T07:11:31.071Z,-0.32
2023-03-05T07:14:00.005Z,-0.33
2023-03-05T07:16:33.783Z,-0.35
2023-03-05T07:19:07.523Z,-0.31
2023-03-05T07:21:39.734Z,-0.28
2023-03-05T07:24:09.809Z,-0.26
2023-03-05T07:26:38.224Z,-0.16
2023-03-05T07:29:09.811Z,-0.17
2023-03-05T07:31:40.446Z,-0.19
2023-03-05T07:34:08.788Z,-0.22
2023-03-05T07:36:38.359Z,-0.20
2023-03-05T07:39:07.153Z,-0.13
2023-03-05T07:41:35.893Z,-0.13
2023-03-05T07:44:04.581Z,-0.10
2023-03-05T07:46:35.030Z,-0.12
2023-03-05T07:49:05.308Z,-0.24
2023-03-05T07:51:33.699Z,-0.11
2023-03-05T07:54:02.182Z,0.13
2023-03-05T07:56:35.185Z,0.09
2023-03-05T07:59:06.664Z,0.08
2023-03-05T08:01:36.112Z,0.16
2023-03-05T08:04:07.828Z,0.09
2023-03-05T08:06:36.193Z,0.09
2023-03-05T08:09:04.590Z,0.22
2023-03-05T08:11:33.001Z,0.32
2023-03-05T08:14:01.394Z,0.34
2023-03-05T08:16:29.652Z,0.43
2023-03-05T08:18:59.356Z,0.51
2023-03-05T08:21:33.711Z,0.40
2023-03-05T08:24:04.108Z,0.43
2023-03-05T08:26:34.907Z,0.48
2023-03-05T08:29:03.894Z,0.54
2023-03-05T08:31:33.190Z,0.53
2023-03-05T08:34:03.884Z,0.70
2023-03-05T08:36:34.586Z,0.83
2023-03-05T08:39:03.526Z,0.95
2023-03-05T08:41:31.861Z,1.05
2023-03-05T08:44:01.016Z,1.04
2023-03-05T08:46:29.958Z,0.99
2023-03-05T08:48:58.635Z,1.13
2023-03-05T08:51:28.286Z,1.13
2023-03-05T08:54:00.229Z,1.25
2023-03-05T08:56:31.206Z,1.41
2023-03-05T08:58:59.625Z,1.14
2023-03-05T09:01:28.211Z,1.26
2023-03-05T09:03:56.768Z,1.33
2023-03-05T09:06:25.160Z,1.47
2023-03-05T09:08:54.135Z,1.49
2023-03-05T09:11:24.254Z,1.53
2023-03-05T09:13:52.680Z,1.49
2023-03-05T09:16:22.699Z,1.60
2023-03-05T09:18:51.421Z,1.64
2023-03-05T09:21:20.175Z,1.62
2023-03-05T09:23:48.872Z,1.63
2023-03-05T09:26:20.192Z,1.62
2023-03-05T09:28:50.128Z,1.74
2023-03-05T09:31:18.938Z,1.88
2023-03-05T09:33:49.550Z,2.06
2023-03-05T09:36:21.847Z,2.05
2023-03-05T09:38:50.451Z,2.14
2023-03-05T09:41:34.516Z,1.76
2023-03-05T09:44:22.380Z,1.85
2023-03-05T09:46:56.426Z,1.79
2023-03-05T09:49:43.755Z,1.82
2023-03-05T09:52:21.809Z,1.86
2023-03-05T09:54:57.527Z,1.74
2023-03-05T09:57:37.046Z,1.76
2023-03-05T10:00:23.033Z,1.76
2023-03-05T10:02:58.430Z,1.79
2023-03-05T10:05:49.936Z,1.97
2023-03-05T10:08:28.550Z,2.00
2023-03-05T10:10:56.989Z,2.05
2023-03-05T10:13:29.720Z,2.11
2023-03-05T10:16:23.853Z,2.23
2023-03-05T10:19:07.130Z,2.14
2023-03-05T10:21:43.409Z,1.94
2023-03-05T10:24:22.291Z,2.05
2023-03-05T10:27:03.397Z,2.17
2023-03-05T10:29:56.041Z,2.30
2023-03-05T10:32:42.756Z,2.33
2023-03-05T10:35:35.324Z,2.41
2023-03-05T10:38:54.903Z,2.28
2023-03-05T10:41:34.001Z,2.34
2023-03-05T10:44:12.616Z,2.41
2023-03-05T10:46:42.179Z,2.26
2023-03-05T10:49:21.373Z,2.30
2023-03-05T10:51:58.455Z,2.39
2023-03-05T10:54:30.902Z,2.18
2023-03-05T10:57:06.710Z,2.18
2023-03-05T10:59:35.026Z,2.23
2023-03-05T11:02:09.746Z,2.34
2023-03-05T11:04:42.002Z,2.54
2023-03-05T11:07:37.348Z,2.60
2023-03-05T11:10:21.378Z,2.60
2023-03-05T11:12:50.775Z,2.83
2023-03-05T11:15:30.912Z,2.82
2023-03-05T11:18:21.277Z,2.71
2023-03-05T11:20:51.634Z,2.39
2023-03-05T11:23:23.594Z,2.22
2023-03-05T11:26:04.242Z,2.46
2023-03-05T11:28:37.094Z,2.42
2023-03-05T11:31:21.100Z,2.17
2023-03-05T11:33:59.999Z,2.31
2023-03-05T11:36:32.628Z,2.42
2023-03-05T11:39:11.666Z,2.29
2023-03-05T11:41:44.656Z,2.13
2023-03-05T11:44:18.379Z,2.20
2023-03-05T11:46:51.933Z,2.20
2023-03-05T11:49:26.717Z,2.29
2023-03-05T11:52:08.243Z,2.24
2023-03-05T11:54:51.052Z,2.14
2023-03-05T11:57:22.499Z,2.04
2023-03-05T11:59:53.568Z,1.99
2023-03-05T12:02:26.567Z,2.04
2023-03-05T12:04:56.095Z,2.08
2023-03-05T12:07:36.962Z,2.13
2023-03-05T12:10:06.685Z,2.09
2023-03-05T12:12:46.729Z,2.22
2023-03-05T12:15:45.357Z,2.24
2023-03-05T12:18:31.179Z,2.20
2023-03-05T12:21:09.028Z,2.20
2023-03-05T12:23:52.086Z,2.32
2023-03-05T12:26:56.126Z,2.47
2023-03-05T12:29:40.712Z,2.50
2023-03-05T12:33:02.275Z,2.25
2023-03-05T12:35:37.184Z,2.17
2023-03-05T12:38:32.176Z,2.05
2023-03-05T12:41:44.456Z,2.01
2023-03-05T12:44:23.776Z,2.06
2023-03-05T12:47:23.751Z,2.05
2023-03-05T12:49:53.340Z,2.01
2023-03-05T12:52:27.369Z,2.05
2023-03-05T12:55:20.271Z,2.06
2023-03-05T12:58:04.148Z,1.89
2023-03-05T13:00:44.359Z,1.91
2023-03-05T13:03:20.791Z,1.91
2023-03-05T13:05:52.360Z,1.91
2023-03-05T13:08:26.367Z,1.91
2023-03-05T13:10:59.437Z,1.97
2023-03-05T13:13:35.891Z,2.03
2023-03-05T13:16:05.773Z,1.96
2023-03-05T13:18:36.815Z,1.96
2023-03-05T13:21:08.827Z,2.01
2023-03-05T13:23:37.396Z,2.01
2023-03-05T13:26:18.535Z,2.02
2023-03-05T13:29:10.963Z,1.94
2023-03-05T13:31:44.962Z,1.99
2023-03-05T13:34:20.262Z,2.00
2023-03-05T13:36:56.824Z,1.95
2023-03-05T13:39:30.305Z,1.91
2023-03-05T13:42:07.174Z,1.90
2023-03-05T13:44:36.870Z,1.87
2023-03-05T13:47:17.047Z,1.75
2023-03-05T13:49:47.348Z,1.85
2023-03-05T13:52:26.509Z,1.79
2023-03-05T13:54:54.893Z,1.77
2023-03-05T13:57:40.579Z,1.75
2023-03-05T14:00:32.925Z,1.76
2023-03-05T14:03:11.682Z,1.75
2023-03-05T14:05:45.769Z,1.80
2023-03-05T14:08:22.957Z,1.80
2023-03-05T14:10:52.645Z,1.83
2023-03-05T14:13:27.088Z,1.87
2023-03-05T14:16:08.661Z,1.83
2023-03-05T14:18:38.478Z,1.83
2023-03-05T14:21:10.037Z,1.62
2023-03-05T14:23:43.005Z,1.63
2023-03-05T14:26:33.619Z,1.62
2023-03-05T14:29:06.141Z,1.70
2023-03-05T14:31:50.070Z,1.72
2023-03-05T14:34:27.315Z,1.66
2023-03-05T14:36:59.468Z,1.72
2023-03-05T14:39:41.248Z,1.70
2023-03-05T14:42:33.874Z,1.85
2023-03-05T14:45:11.182Z,1.77
2023-03-05T14:47:41.437Z,1.82
2023-03-05T14:50:15.867Z,1.79
2023-03-05T14:52:45.298Z,1.76
2023-03-05T14:55:17.217Z,1.78
2023-03-05T14:57:46.414Z,1.68
2023-03-05T15:00:20.063Z,1.68
2023-03-05T15:02:50.131Z,1.73
2023-03-05T15:05:19.971Z,1.79
2023-03-05T15:07:50.191Z,1.83
2023-03-05T15:10:21.472Z,1.71
2023-03-05T15:12:51.307Z,1.75
2023-03-05T15:15:20.884Z,1.76
2023-03-05T15:17:54.979Z,1.70
2023-03-05T15:20:26.868Z,1.69
2023-03-05T15:22:55.880Z,1.67
2023-03-05T15:25:26.804Z,1.68
2023-03-05T15:27:55.187Z,1.61
2023-03-05T15:30:29.589Z,1.63
2023-03-05T15:33:03.624Z,1.64
2023-03-05T15:35:32.133Z,1.70
2023-03-05T15:38:00.593Z,1.63
2023-03-05T15:40:30.147Z,1.62
2023-03-05T15:43:00.703Z,1.62
2023-03-05T15:45:31.314Z,1.61
2023-03-05T15:48:01.231Z,1.66
2023-03-05T15:50:29.797Z,1.63
2023-03-05T15:53:02.742Z,1.64
2023-03-05T15:55:31.120Z,1.52
2023-03-05T15:57:59.782Z,1.55
2023-03-05T16:00:31.814Z,1.45
2023-03-05T16:03:01.536Z,1.38
2023-03-05T16:05:30.274Z,1.32
2023-03-05T16:08:00.528Z,1.28
2023-03-05T16:10:31.513Z,1.28
2023-03-05T16:13:05.248Z,1.31
2023-03-05T16:15:35.542Z,1.32
2023-03-05T16:18:11.571Z,1.30
2023-03-05T16:20:39.921Z,1.24
2023-03-05T16:23:08.704Z,1.21
2023-03-05T16:25:38.266Z,1.18
2023-03-05T16:28:07.116Z,1.17
2023-03-05T16:30:35.658Z,1.16
2023-03-05T16:33:05.683Z,1.21
2023-03-05T16:35:34.517Z,1.27
2023-03-05T16:38:03.755Z,1.22
2023-03-05T16:40:56.609Z,1.12
2023-03-05T16:43:20.677Z,1.09
2023-03-05T16:45:49.048Z,1.10
2023-03-05T16:48:18.754Z,1.05
2023-03-05T16:50:47.111Z,1.03
2023-03-05T16:53:15.527Z,1.01
2023-03-05T16:55:43.863Z,1.02
2023-03-05T16:58:12.185Z,1.00
2023-03-05T17:00:40.592Z,0.96
2023-03-05T17:03:09.048Z,0.90
2023-03-05T17:05:39.612Z,0.90
2023-03-05T17:08:08.776Z,0.91
2023-03-05T17:10:37.038Z,0.91
2023-03-05T17:13:05.345Z,0.87
2023-03-05T17:15:34.467Z,0.86
2023-03-05T17:18:03.583Z,0.87
2023-03-05T17:20:33.910Z,0.88
2023-03-05T17:23:04.276Z,0.85
2023-03-05T17:25:32.582Z,0.87
2023-03-05T17:28:01.178Z,0.88
2023-03-05T17:30:31.362Z,0.87
2023-03-05T17:32:59.830Z,0.80
2023-03-05T17:35:29.534Z,0.78
2023-03-05T17:37:58.320Z,0.80
2023-03-05T17:40:28.367Z,0.75
2023-03-05T17:42:57.021Z,0.75
2023-03-05T17:45:25.540Z,0.75
2023-03-05T17:47:54.000Z,0.77
2023-03-05T17:50:22.765Z,0.86
2023-03-05T17:52:51.163Z,0.96
2023-03-05T17:55:20.223Z,1.05
2023-03-05T17:57:50.370Z,1.03
2023-03-05T18:00:23.335Z,1.06
2023-03-05T18:02:52.688Z,1.08
2023-03-05T18:05:23.800Z,1.06
2023-03-05T18:07:52.887Z,1.07
2023-03-05T18:10:23.701Z,1.03
2023-03-05T18:12:53.579Z,1.00
2023-03-05T18:15:25.235Z,1.04
2023-03-05T18:17:54.781Z,1.02
2023-03-05T18:20:31.723Z,1.01
2023-03-05T18:23:05.559Z,1.00
2023-03-05T18:25:34.090Z,0.91
2023-03-05T18:28:06.614Z,0.93
2023-03-05T18:30:35.859Z,0.85
2023-03-05T18:33:05.555Z,0.85
2023-03-05T18:35:34.418Z,0.94
2023-03-05T18:38:03.185Z,0.94
2023-03-05T18:40:36.000Z,0.88
2023-03-05T18:43:05.784Z,0.86
2023-03-05T18:45:34.659Z,0.93
2023-03-05T18:48:03.309Z,0.88
2023-03-05T18:50:32.070Z,0.83
2023-03-05T18:53:01.028Z,0.88
2023-03-05T18:55:31.588Z,0.90
2023-03-05T18:58:00.002Z,0.87
2023-03-05T19:00:32.576Z,0.97
2023-03-05T19:03:03.416Z,0.94
2023-03-05T19:05:32.259Z,0.89
2023-03-05T19:08:01.617Z,0.96
2023-03-05T19:10:30.084Z,0.84
2023-03-05T19:13:08.088Z,0.82
2023-03-05T19:15:41.245Z,0.79
2023-03-05T19:18:09.754Z,0.81
2023-03-05T19:20:38.216Z,0.81
2023-03-05T19:23:06.548Z,0.81
2023-03-05T19:25:36.577Z,0.73
2023-03-05T19:28:05.232Z,0.69
2023-03-05T19:30:33.968Z,0.65
2023-03-05T19:33:03.836Z,0.66
2023-03-05T19:35:32.233Z,0.69
2023-03-05T19:38:00.548Z,0.78
2023-03-05T19:40:29.094Z,0.80
2023-03-05T19:42:58.651Z,0.74
2023-03-05T19:45:27.334Z,0.73
2023-03-05T19:47:55.779Z,0.80
2023-03-05T19:50:25.598Z,0.87
2023-03-05T19:52:53.962Z,0.81
2023-03-05T19:55:22.875Z,0.78
2023-03-05T19:57:51.411Z,0.81
2023-03-05T20:00:21.365Z,0.71
2023-03-05T20:02:49.724Z,0.66
2023-03-05T20:05:18.636Z,0.62
2023-03-05T20:07:48.456Z,0.63
2023-03-05T20:10:20.331Z,0.76
2023-03-05T20:12:50.568Z,0.80
2023-03-05T20:15:19.791Z,0.78
2023-03-05T20:17:48.613Z,0.67
2023-03-05T20:20:20.045Z,0.67
2023-03-05T20:22:49.829Z,0.73
2023-03-05T20:25:22.286Z,0.70
2023-03-05T20:27:51.000Z,0.64
2023-03-05T20:30:20.024Z,0.78
2023-03-05T20:32:48.354Z,0.79
2023-03-05T20:35:19.392Z,0.73
2023-03-05T20:38:00.229Z,0.64
2023-03-05T20:40:28.807Z,0.61
2023-03-05T20:42:57.489Z,0.64
2023-03-05T20:45:26.115Z,0.59
2023-03-05T20:47:54.659Z,0.50
2023-03-05T20:50:23.713Z,0.35
2023-03-05T20:52:53.458Z,0.27
2023-03-05T20:55:23.465Z,0.22
2023-03-05T20:57:52.561Z,0.12
2023-03-05T21:00:21.390Z,0.07
2023-03-05T21:02:51.641Z,-0.10
2023-03-05T21:05:22.094Z,-0.16
2023-03-05T21:07:52.660Z,-0.16
2023-03-05T21:10:22.249Z,-0.22
2023-03-05T21:12:53.374Z,-0.24
2023-03-05T21:15:24.432Z,-0.27
2023-03-05T21:17:53.577Z,-0.34
2023-03-05T21:20:27.087Z,-0.39
2023-03-05T21:22:58.281Z,-0.37
2023-03-05T21:25:29.130Z,-0.32
2023-03-05T21:28:02.136Z,-0.30
2023-03-05T21:30:34.632Z,-0.33
2023-03-05T21:33:06.004Z,-0.35
2023-03-05T21:35:35.487Z,-0.37
2023-03-05T21:38:08.090Z,-0.29
2023-03-05T21:40:39.890Z,-0.33
2023-03-05T21:43:08.238Z,-0.35
2023-03-05T21:45:36.662Z,-0.29
2023-03-05T21:48:06.068Z,-0.20
2023-03-05T21:50:34.586Z,-0.25
2023-03-05T21:53:04.817Z,-0.27
2023-03-05T21:55:43.094Z,-0.33
2023-03-05T21:58:11.755Z,-0.34
2023-03-05T22:00:40.103Z,-0.34
2023-03-05T22:03:08.763Z,-0.32
2023-03-05T22:05:37.299Z,-0.28
2023-03-05T22:08:07.734Z,-0.23
2023-03-05T22:10:36.096Z,-0.23
2023-03-05T22:13:12.465Z,-0.25
2023-03-05T22:15:47.360Z,-0.19
2023-03-05T22:18:18.226Z,-0.06
2023-03-05T22:20:47.011Z,-0.08
2023-03-05T22:23:18.626Z,-0.11
2023-03-05T22:25:47.342Z,-0.16
2023-03-05T22:28:17.355Z,-0.20
2023-03-05T22:30:46.801Z,-0.25
2023-03-05T22:33:15.453Z,-0.29
2023-03-05T22:35:45.739Z,-0.31
2023-03-05T22:38:15.907Z,-0.30
2023-03-05T22:40:46.752Z,-0.31
2023-03-05T22:43:16.662Z,-0.34
2023-03-05T22:45:45.782Z,-0.32
2023-03-05T22:48:15.394Z,-0.29
2023-03-05T22:50:45.168Z,-0.25
2023-03-05T22:53:13.944Z,-0.21
2023-03-05T22:55:45.370Z,-0.21
2023-03-05T22:58:14.293Z,-0.19
2023-03-05T23:00:42.746Z,-0.16
2023-03-05T23:03:11.052Z,-0.14
2023-03-05T23:05:41.428Z,-0.09
2023-03-05T23:08:10.108Z,-0.06
2023-03-05T23:10:38.816Z,-0.03
2023-03-05T23:13:08.588Z,-0.05
2023-03-05T23:15:39.447Z,-0.03
2023-03-05T23:18:08.374Z,-0.13
2023-03-05T23:20:38.938Z,-0.16
2023-03-05T23:23:07.737Z,-0.14
2023-03-05T23:25:37.659Z,-0.24
2023-03-05T23:28:06.338Z,-0.32
2023-03-05T23:30:39.492Z,-0.42
2023-03-05T23:33:18.057Z,-0.34
2023-03-05T23:35:53.423Z,-0.46
2023-03-05T23:38:22.768Z,-0.46
2023-03-05T23:40:54.033Z,-0.42
2023-03-05T23:43:25.605Z,-0.46
2023-03-05T23:45:55.977Z,-0.44
2023-03-05T23:48:27.309Z,-0.42
2023-03-05T23:50:56.437Z,-0.40
2023-03-05T23:53:27.914Z,-0.35
2023-03-05T23:55:58.051Z,-0.30
2023-03-05T23:58:26.572Z,-0.28
